Time;durP1;ratioP1;P1;durP2;ratioP2;P2;SDS_P1;SDS_P2;PMS_P1;PMS_P2;Temp;Humidity;BMP_temperature;BMP_pressure;BME280_temperature;BME280_humidity;BME280_pressure;Samples;Min_cycle;Max_cycle;Signal;HPM_P1;HPM_P2
2022/01/19 05:03:16;;;;;;;12.07;6.63;;;;;;;-4.22;100.00;96080.00;5016054;23;20054;-74
2022/01/19 05:05:50;;;;;;;17.95;8.60;;;;;;;-4.30;100.00;96069.31;4985982;28;20034;-73
2022/01/19 05:13:38;;;;;;;15.45;7.95;;;;;;;-4.28;100.00;96072.63;4999028;28;20041;-74
2022/01/19 05:16:04;;;;;;;12.75;8.38;;;;;;;-4.18;100.00;96070.59;4986710;28;20031;-74
2022/01/19 05:18:30;;;;;;;11.82;7.85;;;;;;;-4.00;100.00;96083.41;4985749;28;20053;-74
2022/01/19 05:20:55;;;;;;;21.48;8.65;;;;;;;-4.01;100.00;96083.44;4985481;28;20178;-75
2022/01/19 05:23:21;;;;;;;14.93;7.82;;;;;;;-4.15;100.00;96089.03;4985666;28;20406;-74
2022/01/19 05:25:46;;;;;;;15.50;8.75;;;;;;;-4.19;100.00;96074.00;4984854;28;20088;-74
2022/01/19 05:28:12;;;;;;;17.45;9.52;;;;;;;-4.08;100.00;96085.41;5002854;28;20506;-74
2022/01/19 05:30:38;;;;;;;14.45;7.80;;;;;;;-4.05;100.00;96092.03;4983669;28;20396;-74
2022/01/19 05:33:03;;;;;;;17.20;8.13;;;;;;;-4.23;100.00;96106.16;5001750;28;20030;-74
2022/01/19 05:35:30;;;;;;;16.52;7.75;;;;;;;-4.11;100.00;96103.19;4985438;28;20473;-74
2022/01/19 05:37:55;;;;;;;12.73;7.32;;;;;;;-4.15;100.00;96109.25;4983914;28;20077;-72
2022/01/19 05:40:21;;;;;;;13.63;7.80;;;;;;;-4.13;100.00;96106.66;4986269;28;20066;-72
2022/01/19 05:42:48;;;;;;;12.98;8.50;;;;;;;-4.03;100.00;96111.34;4984347;28;20109;-74
2022/01/19 05:45:14;;;;;;;12.35;7.20;;;;;;;-4.04;100.00;96112.19;4985683;28;20121;-74
2022/01/19 05:47:39;;;;;;;14.00;7.28;;;;;;;-3.85;100.00;96114.88;5002521;28;20547;-71
2022/01/19 05:50:06;;;;;;;15.80;7.60;;;;;;;-3.78;100.00;96139.91;4991616;28;20023;-71
2022/01/19 05:52:32;;;;;;;14.32;7.45;;;;;;;-3.75;100.00;96134.75;4987951;28;20034;-71
2022/01/19 05:54:57;;;;;;;12.60;7.45;;;;;;;-3.76;100.00;96135.63;4990311;28;20037;-70
2022/01/19 05:57:24;;;;;;;13.57;8.32;;;;;;;-3.68;100.00;96134.53;4991103;28;20034;-71
2022/01/19 05:59:49;;;;;;;14.27;8.38;;;;;;;-3.70;100.00;96136.28;5005165;28;20499;-71
2022/01/19 06:02:16;;;;;;;13.05;7.85;;;;;;;-3.63;100.00;96138.56;5005713;28;20092;-71
2022/01/19 06:04:41;;;;;;;20.55;8.63;;;;;;;-3.43;100.00;96136.09;5004876;28;20084;-72
2022/01/19 06:07:07;;;;;;;14.98;7.72;;;;;;;-3.37;100.00;96130.78;5006490;28;20022;-72
2022/01/19 06:11:59;;;;;;;13.32;8.43;;;;;;;-3.29;100.00;96136.41;4990193;28;20046;-70
2022/01/19 06:14:24;;;;;;;19.33;10.43;;;;;;;-3.29;100.00;96135.56;4988213;28;20040;-72
2022/01/19 06:16:49;;;;;;;14.63;9.27;;;;;;;-3.15;100.00;96135.06;4983613;28;20034;-72
2022/01/19 06:19:19;;;;;;;16.27;8.38;;;;;;;-3.15;100.00;96132.53;5005679;28;20319;-72
2022/01/19 06:21:44;;;;;;;19.33;8.43;;;;;;;-3.06;100.00;96145.66;4984880;28;20038;-73
2022/01/19 06:24:10;;;;;;;15.77;9.15;;;;;;;-3.16;100.00;96146.06;4989592;28;20117;-71
2022/01/19 06:26:36;;;;;;;20.23;9.20;;;;;;;-3.13;100.00;96156.91;4988137;28;20030;-71
2022/01/19 06:29:02;;;;;;;17.58;9.23;;;;;;;-3.07;100.00;96156.66;4990833;28;20058;-71
2022/01/19 06:31:28;;;;;;;15.10;8.02;;;;;;;-2.89;100.00;96158.47;4988806;28;20038;-71
2022/01/19 06:33:53;;;;;;;13.55;8.43;;;;;;;-2.93;100.00;96151.06;4985481;28;20142;-71
2022/01/19 06:36:19;;;;;;;15.05;8.25;;;;;;;-2.82;100.00;96152.28;4988720;28;20109;-71
2022/01/19 06:38:44;;;;;;;16.30;8.35;;;;;;;-2.84;100.00;96156.59;4970617;28;20034;-71
2022/01/19 06:41:09;;;;;;;15.77;9.07;;;;;;;-2.84;100.00;96156.59;4991469;28;20030;-71
2022/01/19 06:43:35;;;;;;;13.35;8.30;;;;;;;-2.70;100.00;96159.38;4969366;28;20498;-73
2022/01/19 06:46:01;;;;;;;21.48;9.48;;;;;;;-2.59;100.00;96158.13;4973138;28;20076;-71
2022/01/19 06:48:26;;;;;;;15.68;9.07;;;;;;;-2.58;100.00;96157.25;4987083;28;20026;-71
2022/01/19 06:50:51;;;;;;;18.33;9.30;;;;;;;-2.60;100.00;96167.44;4972559;28;20070;-71
2022/01/19 06:53:17;;;;;;;14.50;8.00;;;;;;;-2.50;100.00;96170.44;4985668;28;20278;-71
2022/01/19 06:55:42;;;;;;;19.63;9.13;;;;;;;-2.59;100.00;96161.50;4986924;28;20093;-74
2022/01/19 06:58:08;;;;;;;13.77;9.30;;;;;;;-2.45;100.00;96159.25;4989189;28;20022;-71
2022/01/19 07:00:33;;;;;;;19.45;10.43;;;;;;;-2.40;100.00;96159.88;4984462;28;20022;-72
2022/01/19 07:02:59;;;;;;;16.75;8.43;;;;;;;-2.17;100.00;96158.91;4983874;28;20073;-71
2022/01/19 07:05:24;;;;;;;15.77;8.70;;;;;;;-2.18;100.00;96163.16;4969830;28;20034;-71
2022/01/19 07:07:52;;;;;;;14.88;8.93;;;;;;;-2.19;100.00;96155.63;5000256;28;20050;-71
2022/01/19 07:10:18;;;;;;;18.30;9.32;;;;;;;-2.01;99.24;96154.84;4967724;28;20041;-71
2022/01/19 07:12:43;;;;;;;15.93;9.32;;;;;;;-1.67;99.13;96149.13;4965765;28;20046;-71
2022/01/19 07:15:09;;;;;;;16.13;9.80;;;;;;;-1.55;96.85;96142.69;4986760;28;20097;-71
2022/01/19 07:17:35;;;;;;;20.27;10.40;;;;;;;-1.22;95.33;96143.72;5002964;28;20057;-71
2022/01/19 07:20:01;;;;;;;20.30;10.48;;;;;;;-0.60;92.21;96144.09;5004483;28;20506;-74
2022/01/19 07:22:26;;;;;;;20.08;8.68;;;;;;;0.00;87.81;96137.69;4984550;28;20038;-74
2022/01/19 07:24:52;;;;;;;17.02;8.98;;;;;;;-0.14;88.55;96139.31;4986723;28;20089;-73
2022/01/19 07:27:17;;;;;;;16.60;9.25;;;;;;;-0.76;90.11;96144.91;4980596;28;20034;-73
2022/01/19 07:29:43;;;;;;;16.10;8.85;;;;;;;-0.86;93.59;96152.16;5000683;28;20030;-72
2022/01/19 07:32:10;;;;;;;18.00;9.73;;;;;;;-1.05;94.88;96151.38;4987945;28;20042;-70
2022/01/19 07:34:36;;;;;;;16.35;8.95;;;;;;;-1.19;96.55;96149.44;4979632;28;20113;-70
2022/01/19 07:37:03;;;;;;;20.35;8.57;;;;;;;-0.97;96.87;96146.75;4973563;28;20448;-70
2022/01/19 07:39:28;;;;;;;15.55;8.73;;;;;;;-0.93;97.01;96150.00;4968923;28;20077;-71
2022/01/19 07:41:55;;;;;;;13.95;8.10;;;;;;;-0.85;96.35;96150.44;4980401;28;20034;-70
2022/01/19 07:44:21;;;;;;;19.77;9.82;;;;;;;-0.75;95.18;96152.47;4997926;28;20084;-71
2022/01/19 07:46:48;;;;;;;11.15;8.65;;;;;;;-0.46;94.41;96152.78;5001860;28;20030;-71
2022/01/19 07:49:14;;;;;;;15.82;9.55;;;;;;;-0.37;92.43;96154.88;4986409;28;20033;-71
2022/01/19 07:51:39;;;;;;;15.77;10.15;;;;;;;-0.76;92.86;96150.00;4970885;28;20039;-70
2022/01/19 07:54:05;;;;;;;15.90;8.75;;;;;;;-0.05;92.38;96154.94;4970843;28;20083;-70
2022/01/19 07:56:30;;;;;;;13.93;8.65;;;;;;;0.25;89.70;96156.84;4987005;28;20109;-72
2022/01/19 07:58:56;;;;;;;18.83;9.98;;;;;;;2.04;81.38;96156.25;4984053;28;20034;-72
2022/01/19 08:01:22;;;;;;;16.08;8.70;;;;;;;0.91;83.44;96153.28;4992543;28;20534;-72
2022/01/19 08:03:49;;;;;;;19.48;9.80;;;;;;;0.23;85.62;96149.25;4971545;28;20057;-72
2022/01/19 08:06:14;;;;;;;16.95;10.13;;;;;;;0.32;88.04;96153.88;4986370;28;20031;-72
2022/01/19 08:08:40;;;;;;;20.17;9.68;;;;;;;0.70;87.46;96153.63;4988357;28;20030;-72
2022/01/19 08:11:05;;;;;;;16.77;9.20;;;;;;;2.00;83.92;96151.38;4988365;28;20121;-73
2022/01/19 08:13:31;;;;;;;15.25;9.23;;;;;;;1.99;79.17;96154.88;4971364;28;20026;-72
2022/01/19 08:15:56;;;;;;;18.00;10.30;;;;;;;5.38;66.12;96142.06;4989450;28;20030;-73
2022/01/19 08:18:22;;;;;;;17.95;9.70;;;;;;;3.97;68.37;96139.03;4969994;28;20703;-73
2022/01/19 08:20:47;;;;;;;15.05;8.65;;;;;;;2.98;72.33;96144.59;4988280;28;20491;-73
2022/01/19 08:23:13;;;;;;;17.63;9.20;;;;;;;4.07;70.47;96140.91;4985974;28;20039;-73
2022/01/19 08:25:38;;;;;;;18.10;9.27;;;;;;;3.22;70.07;96135.38;4984896;28;20089;-74
2022/01/19 08:28:04;;;;;;;14.00;9.40;;;;;;;3.50;72.63;96144.69;4979916;28;20026;-74
2022/01/19 08:30:30;;;;;;;12.85;9.20;;;;;;;2.30;75.45;96143.66;4987480;28;20030;-74
2022/01/19 08:32:55;;;;;;;20.85;9.57;;;;;;;2.64;76.05;96144.09;4986019;28;20452;-74
2022/01/19 08:35:21;;;;;;;21.40;10.38;;;;;;;2.93;74.20;96149.97;4977315;28;20054;-73
2022/01/19 08:37:46;;;;;;;16.13;9.55;;;;;;;4.06;71.31;96139.25;4987010;28;20092;-73
2022/01/19 08:40:13;;;;;;;12.95;9.35;;;;;;;3.88;67.54;96135.34;4994353;28;20051;-73
2022/01/19 08:42:38;;;;;;;19.95;10.52;;;;;;;2.41;73.37;96131.88;4986328;28;20054;-73
2022/01/19 08:45:07;;;;;;;18.45;9.73;;;;;;;3.07;71.96;96134.59;4965515;28;20130;-74
2022/01/19 08:47:37;;;;;;;14.88;9.43;;;;;;;3.71;69.54;96133.88;4967236;28;20423;-73
2022/01/19 08:50:04;;;;;;;15.10;9.23;;;;;;;6.07;58.79;96118.16;4983176;28;20093;-75
2022/01/19 08:52:30;;;;;;;16.65;9.25;;;;;;;6.02;58.77;96122.81;4982910;28;20034;-75
2022/01/19 08:54:55;;;;;;;15.27;10.25;;;;;;;9.41;48.46;96121.66;4986040;28;20034;-75
2022/01/19 08:57:23;;;;;;;19.92;9.98;;;;;;;9.49;47.27;96118.41;4987171;28;20019;-75
2022/01/19 08:59:49;;;;;;;14.70;9.50;;;;;;;8.87;47.72;96116.91;5001555;28;20077;-74
2022/01/19 09:02:15;;;;;;;13.15;8.93;;;;;;;8.27;49.38;96120.31;4979782;28;20050;-73
2022/01/19 09:04:40;;;;;;;15.98;9.40;;;;;;;6.07;58.38;96120.72;4983488;28;20038;-72
2022/01/19 09:07:05;;;;;;;15.77;8.35;;;;;;;3.51;63.21;96126.66;4999681;28;20092;-72
2022/01/19 09:09:31;;;;;;;16.92;9.25;;;;;;;2.09;71.72;96132.97;4984216;28;20057;-73
2022/01/19 09:11:56;;;;;;;15.60;9.90;;;;;;;2.23;74.66;96127.88;4995650;28;20121;-74
2022/01/19 09:14:22;;;;;;;17.10;8.82;;;;;;;1.95;76.16;96128.69;4997466;28;20037;-74
2022/01/19 09:16:50;;;;;;;18.77;8.40;;;;;;;1.77;77.40;96128.91;4991373;28;20029;-74
2022/01/19 09:19:17;;;;;;;11.30;7.63;;;;;;;2.84;68.07;96124.16;4987146;28;20042;-74
2022/01/19 09:21:42;;;;;;;15.65;8.75;;;;;;;5.30;64.67;96120.31;4988340;28;20058;-74
2022/01/19 09:24:10;;;;;;;15.00;9.35;;;;;;;2.93;67.95;96118.47;4994371;28;20507;-74
2022/01/19 09:26:36;;;;;;;13.48;7.68;;;;;;;6.74;56.45;96086.34;5001029;28;20054;-75
2022/01/19 09:29:02;;;;;;;13.38;7.47;;;;;;;6.76;57.08;96104.25;4993454;28;20415;-74
2022/01/19 09:31:27;;;;;;;12.00;7.35;;;;;;;4.67;57.98;96102.56;4984600;28;20117;-72
2022/01/19 09:34:07;;;;;;;15.40;8.18;;;;;;;3.03;67.28;96099.06;4974548;28;20518;-75
2022/01/19 09:36:35;;;;;;;17.88;8.52;;;;;;;2.58;68.33;96095.06;5002713;28;20023;-75
2022/01/19 09:39:05;;;;;;;12.73;7.40;;;;;;;5.75;61.12;96085.31;4992089;28;20030;-75
2022/01/19 09:41:30;;;;;;;;;;;;;;;10.06;45.73;96058.84;5005749;28;20036;-76
2022/01/19 09:43:56;;;;;;;12.23;6.70;;;;;;;9.71;43.84;96056.06;4988526;28;20500;-74
2022/01/19 09:46:22;;;;;;;14.52;7.35;;;;;;;3.61;61.01;96050.88;4987321;28;20034;-75
2022/01/19 09:48:47;;;;;;;10.60;5.88;;;;;;;8.54;48.02;96044.91;4990109;28;20444;-75
2022/01/19 09:51:14;;;;;;;9.65;5.50;;;;;;;7.65;45.44;96039.53;4989481;28;20042;-76
2022/01/19 09:53:40;;;;;;;10.65;6.10;;;;;;;5.49;52.10;96047.88;4985022;28;20042;-73
2022/01/19 09:56:06;;;;;;;13.80;7.30;;;;;;;3.31;61.69;96052.88;4989854;28;20022;-75
2022/01/19 09:58:32;;;;;;;15.10;7.32;;;;;;;4.02;58.82;96049.84;5008846;28;20080;-75
2022/01/19 10:00:57;;;;;;;15.27;7.10;;;;;;;4.36;62.51;96035.56;4984046;28;20136;-77
2022/01/19 10:03:31;;;;;;;15.95;7.28;;;;;;;6.23;52.32;96036.31;5003892;28;20034;-73
2022/01/19 10:06:29;;;;;;;13.10;6.40;;;;;;;6.20;55.23;96039.97;5005211;28;20033;-75
2022/01/19 10:08:56;;;;;;;13.50;5.95;;;;;;;3.93;55.99;96040.22;4984835;28;20120;-76
2022/01/19 10:16:58;;;;;;;9.65;6.55;;;;;;;5.32;54.67;96044.00;4967820;28;20034;-75
2022/01/19 10:17:06;;;;;;;13.52;6.30;;;;;;;4.12;56.86;96048.31;4983623;28;20084;-74
2022/01/19 10:19:36;;;;;;;17.40;6.75;;;;;;;2.29;63.90;96055.13;4971571;28;20500;-75
2022/01/19 10:22:08;;;;;;;12.27;6.85;;;;;;;3.54;60.75;96046.25;4990467;28;20061;-76
2022/01/19 10:24:46;;;;;;;10.43;5.78;;;;;;;3.66;59.04;96043.72;4988731;28;20112;-76
2022/01/19 10:27:32;;;;;;;9.05;5.82;;;;;;;4.71;56.92;96039.06;4986714;28;20061;-75
2022/01/19 10:30:04;;;;;;;11.63;6.07;;;;;;;3.67;58.82;96032.56;4996011;28;20037;-74
2022/01/19 10:32:43;;;;;;;11.57;6.32;;;;;;;7.79;49.86;96016.03;4971656;28;20038;-76
2022/01/19 10:35:26;;;;;;;9.73;5.68;;;;;;;5.92;50.07;96026.75;4972920;28;20045;-76
2022/01/19 10:38:07;;;;;;;11.77;5.68;;;;;;;6.83;49.26;96021.28;4981542;28;20053;-76
2022/01/19 10:40:33;;;;;;;11.75;6.03;;;;;;;3.75;56.72;96026.94;4988502;28;20026;-77
2022/01/19 10:42:58;;;;;;;9.68;6.15;;;;;;;4.19;57.06;96011.91;5005432;28;20117;-76
2022/01/19 10:45:23;;;;;;;10.82;5.95;;;;;;;3.54;58.65;96007.84;4989297;28;20183;-75
2022/01/19 10:47:53;;;;;;;15.60;6.90;;;;;;;3.56;59.45;96009.38;4971837;28;20054;-75
2022/01/19 10:50:31;;;;;;;15.80;6.80;;;;;;;3.55;58.81;95994.13;4981255;28;20044;-75
2022/01/19 10:52:59;;;;;;;11.85;6.55;;;;;;;3.26;61.06;95987.56;4989416;28;20043;-74
2022/01/19 10:55:32;;;;;;;13.02;6.32;;;;;;;3.63;59.71;95984.19;4994313;28;20031;-75
2022/01/19 10:58:00;;;;;;;10.45;5.97;;;;;;;4.09;60.11;95984.44;4966518;28;20027;-75
2022/01/19 11:00:33;;;;;;;10.50;5.53;;;;;;;4.05;60.07;95977.88;4969607;28;20030;-73
2022/01/19 11:03:26;;;;;;;16.48;5.47;;;;;;;4.29;57.80;95972.81;4982228;28;20046;-73
2022/01/19 11:05:58;;;;;;;10.88;5.93;;;;;;;3.59;58.48;95964.84;4990089;28;20026;-73
2022/01/19 11:08:25;;;;;;;12.15;6.47;;;;;;;3.33;59.88;95966.59;4987691;28;20034;-75
2022/01/19 11:10:53;;;;;;;10.68;5.72;;;;;;;2.99;60.45;95952.63;4972553;28;20058;-77
2022/01/19 11:13:39;;;;;;;16.77;6.18;;;;;;;3.28;60.43;95968.63;4988925;28;20030;-74
2022/01/19 11:16:04;;;;;;;13.45;5.95;;;;;;;3.12;60.17;95957.75;4986641;28;20109;-75
2022/01/19 11:18:32;;;;;;;11.82;6.03;;;;;;;3.40;60.93;95959.31;4984135;28;20031;-75
2022/01/19 11:21:05;;;;;;;11.40;6.05;;;;;;;3.48;60.29;95960.44;4968568;28;20031;-74
2022/01/19 11:23:40;;;;;;;10.15;6.25;;;;;;;3.76;59.75;95961.16;4978652;28;20026;-74
2022/01/19 11:26:10;;;;;;;9.70;5.70;;;;;;;3.55;59.50;95955.72;4971184;28;20476;-73
2022/01/19 11:28:42;;;;;;;16.85;6.32;;;;;;;3.33;58.85;95951.22;4968690;28;20031;-72
2022/01/19 11:31:32;;;;;;;16.75;5.75;;;;;;;3.41;59.70;95938.72;4969590;28;20098;-74
2022/01/19 11:33:58;;;;;;;10.30;6.13;;;;;;;3.54;60.58;95942.09;4965233;28;20508;-74
2022/01/19 11:36:26;;;;;;;8.13;5.53;;;;;;;3.34;59.52;95934.94;4985524;28;20042;-74
2022/01/19 11:38:58;;;;;;;14.38;6.80;;;;;;;3.61;62.06;95932.28;4968546;28;20170;-74
2022/01/19 11:41:55;;;;;;;12.55;7.25;;;;;;;3.36;61.84;95933.13;4980798;28;20594;-74
2022/01/19 11:44:33;;;;;;;11.93;7.00;;;;;;;3.52;61.32;95928.59;4988666;28;20034;-76
2022/01/19 11:47:25;;;;;;;9.63;6.05;;;;;;;3.47;61.52;95924.69;4985487;28;20045;-75
2022/01/19 11:50:07;;;;;;;13.15;6.38;;;;;;;2.95;61.40;95923.06;4972042;28;20471;-75
2022/01/19 11:52:34;;;;;;;10.68;5.53;;;;;;;3.28;61.99;95921.72;4997484;28;20046;-76
2022/01/19 11:55:17;;;;;;;12.00;6.45;;;;;;;3.02;62.51;95916.59;4971709;28;20030;-74
2022/01/19 11:57:44;;;;;;;16.35;8.13;;;;;;;2.67;63.98;95902.75;4977455;28;20531;-75
2022/01/19 12:00:19;;;;;;;13.02;6.50;;;;;;;2.95;63.92;95905.16;4971453;28;20019;-75
2022/01/19 12:02:50;;;;;;;15.57;7.18;;;;;;;3.35;62.86;95905.88;4983701;28;20503;-74
2022/01/19 12:05:20;;;;;;;12.40;6.78;;;;;;;3.18;63.92;95913.84;4984102;28;20034;-75
2022/01/19 12:07:48;;;;;;;13.95;7.00;;;;;;;2.71;64.00;95898.25;4982031;28;20027;-75
2022/01/19 12:10:21;;;;;;;10.27;6.07;;;;;;;2.98;63.34;95904.13;4985140;28;20454;-75
2022/01/19 12:16:44;;;;;;;10.52;6.47;;;;;;;3.34;63.55;95899.09;4986225;28;20049;-76
2022/01/19 12:19:10;;;;;;;9.68;7.07;;;;;;;3.28;63.50;95893.56;4982891;28;20034;-75
2022/01/19 12:21:42;;;;;;;11.43;6.85;;;;;;;3.40;63.80;95887.66;4981857;28;20413;-75
2022/01/19 12:24:50;;;;;;;16.05;7.05;;;;;;;3.38;63.11;95885.19;4980202;28;20075;-73
2022/01/19 12:27:16;;;;;;;12.23;7.72;;;;;;;3.23;63.30;95886.22;4968912;28;20039;-73
2022/01/19 12:29:50;;;;;;;10.73;6.57;;;;;;;2.82;63.82;95880.50;4980611;28;20035;-76
2022/01/19 12:32:16;;;;;;;28.42;8.63;;;;;;;2.89;64.80;95874.06;4996652;28;20035;-77
2022/01/19 12:34:50;;;;;;;10.45;6.90;;;;;;;2.64;63.98;95862.84;4979351;28;20152;-76
2022/01/19 12:37:35;;;;;;;11.68;7.68;;;;;;;3.17;64.10;95863.59;4984524;28;20117;-76
2022/01/19 12:40:26;;;;;;;15.30;7.70;;;;;;;2.95;64.91;95863.41;4986182;28;20154;-76
2022/01/19 12:42:52;;;;;;;;;;;;;;;2.98;64.62;95852.97;4984422;28;20571;-77
2022/01/19 12:45:29;;;;;;;14.45;7.45;;;;;;;3.14;63.99;95856.16;5002787;28;19952;-75
2022/01/19 12:47:55;;;;;;;11.07;7.50;;;;;;;2.93;63.77;95844.78;5001137;28;20026;-77
2022/01/19 12:50:29;;;;;;;10.73;5.97;;;;;;;2.95;64.13;95851.44;4987568;28;20040;-76
2022/01/19 12:52:59;;;;;;;10.20;6.43;;;;;;;3.10;63.57;95845.28;4988280;28;20124;-76
2022/01/19 12:55:28;;;;;;;9.13;6.15;;;;;;;2.78;64.58;95844.06;4984397;28;20026;-76
2022/01/19 12:57:57;;;;;;;12.93;6.38;;;;;;;2.63;65.17;95834.84;4996809;28;20495;-77
2022/01/19 13:00:28;;;;;;;9.25;6.90;;;;;;;2.76;64.55;95837.41;4983698;28;20519;-76
2022/01/19 13:02:53;;;;;;;10.38;7.63;;;;;;;2.81;64.63;95832.81;4966931;28;20553;-76
2022/01/19 13:05:21;;;;;;;10.32;7.07;;;;;;;2.70;65.72;95827.59;4983008;28;20114;-75
2022/01/19 13:07:55;;;;;;;11.70;6.88;;;;;;;2.69;63.72;95819.09;4973996;28;20023;-76
2022/01/19 13:10:44;;;;;;;12.38;6.45;;;;;;;2.57;64.54;95815.59;4983309;28;20029;-73
2022/01/19 13:13:13;;;;;;;14.40;7.67;;;;;;;2.34;65.03;95812.94;4968125;28;20132;-75
2022/01/19 13:15:43;;;;;;;12.80;6.45;;;;;;;2.78;64.93;95822.78;4955857;28;20065;-76
2022/01/19 13:18:09;;;;;;;11.77;6.68;;;;;;;2.59;66.10;95812.97;4974962;28;20031;-76
2022/01/19 13:20:35;;;;;;;11.98;7.43;;;;;;;2.59;66.25;95818.06;4975239;28;20940;-76
2022/01/19 13:23:01;;;;;;;14.00;7.18;;;;;;;2.59;66.73;95811.22;4991890;28;20022;-76
2022/01/19 13:25:29;;;;;;;13.75;7.63;;;;;;;2.58;66.58;95812.13;5000681;28;20571;-75
2022/01/19 13:27:56;;;;;;;10.68;7.20;;;;;;;2.23;66.75;95811.06;4968513;28;20037;-76
2022/01/19 13:30:28;;;;;;;15.38;7.40;;;;;;;2.42;68.08;95805.56;4983589;28;20031;-76
2022/01/19 13:32:54;;;;;;;8.25;7.03;;;;;;;2.20;68.21;95816.38;4982164;28;20101;-75
2022/01/19 13:35:21;;;;;;;11.55;7.30;;;;;;;2.13;68.43;95815.94;4969292;28;20038;-76
2022/01/19 13:37:55;;;;;;;13.30;7.25;;;;;;;2.21;67.96;95809.53;4976264;28;20503;-77
2022/01/19 13:40:23;;;;;;;11.45;7.55;;;;;;;2.15;67.86;95797.16;4983275;28;20026;-77
2022/01/19 13:42:53;;;;;;;11.15;7.25;;;;;;;2.12;67.41;95809.19;4966314;28;20385;-77
2022/01/19 13:45:30;;;;;;;15.35;8.27;;;;;;;2.36;68.54;95806.81;4970042;28;20034;-77
2022/01/19 13:51:11;;;;;;;15.60;8.05;;;;;;;2.22;67.94;95785.59;4985675;28;20042;-77
2022/01/19 13:53:40;;;;;;;15.05;8.45;;;;;;;2.19;69.69;95780.69;4987038;28;20023;-77
2022/01/19 13:56:10;;;;;;;16.55;7.00;;;;;;;2.06;69.21;95784.03;4974894;28;20035;-77
2022/01/19 13:58:42;;;;;;;12.35;7.32;;;;;;;2.04;68.44;95791.00;5002241;28;20042;-77
2022/01/19 14:01:13;;;;;;;11.27;6.95;;;;;;;1.95;70.00;95789.03;4973143;28;20531;-77
2022/01/19 14:03:52;;;;;;;10.60;7.32;;;;;;;1.90;69.92;95777.47;5001417;28;20053;-77
2022/01/19 14:06:31;;;;;;;13.45;8.23;;;;;;;2.07;69.50;95772.09;4987380;28;20112;-77
2022/01/19 14:09:18;;;;;;;13.50;8.30;;;;;;;1.94;70.17;95766.97;4985839;28;20031;-74
2022/01/19 14:11:45;;;;;;;11.90;7.50;;;;;;;2.02;70.66;95779.25;4989883;28;20038;-74
2022/01/19 14:14:23;;;;;;;12.65;7.68;;;;;;;1.94;71.27;95771.25;4974097;28;20439;-75
2022/01/19 14:16:50;;;;;;;8.45;7.13;;;;;;;1.85;70.78;95774.41;4992810;28;20031;-77
2022/01/19 14:19:19;;;;;;;13.38;7.55;;;;;;;1.72;72.04;95786.28;5005737;28;20062;-75
2022/01/19 14:21:55;;;;;;;11.23;7.80;;;;;;;1.63;72.05;95785.16;4985657;28;20478;-77
2022/01/19 14:24:20;;;;;;;12.07;7.78;;;;;;;1.67;72.79;95783.22;4970157;28;20110;-77
2022/01/19 14:26:54;;;;;;;13.55;8.38;;;;;;;1.52;73.41;95783.25;4986394;28;20035;-77
2022/01/19 14:29:19;;;;;;;10.93;7.65;;;;;;;1.51;73.36;95779.06;4973677;28;20041;-77
2022/01/19 14:31:56;;;;;;;12.50;8.10;;;;;;;1.40;73.83;95771.28;4992369;28;20496;-77
2022/01/19 14:34:40;;;;;;;13.70;8.02;;;;;;;1.45;72.82;95778.63;4976759;28;20026;-77
2022/01/19 14:37:17;;;;;;;13.45;7.53;;;;;;;1.33;74.11;95769.19;4995526;28;20182;-78
2022/01/19 14:39:55;;;;;;;13.10;7.90;;;;;;;1.26;74.80;95763.63;4968128;28;20035;-77
2022/01/19 14:42:34;;;;;;;11.23;8.05;;;;;;;1.17;75.44;95759.09;4983562;28;20026;-77
2022/01/19 14:45:20;;;;;;;15.45;9.70;;;;;;;1.20;75.91;95742.78;5003250;28;20038;-77
2022/01/19 14:47:45;;;;;;;15.52;7.85;;;;;;;0.99;77.00;95752.59;4987918;28;20057;-76
2022/01/19 14:50:22;;;;;;;13.82;7.20;;;;;;;0.92;78.46;95761.50;4989209;28;20022;-77
2022/01/19 14:52:49;;;;;;;9.60;7.75;;;;;;;0.91;79.06;95752.22;4988208;28;20110;-77
2022/01/19 14:55:17;;;;;;;12.75;6.85;;;;;;;0.79;79.24;95753.78;4988969;28;20081;-77
2022/01/19 14:57:43;;;;;;;11.10;6.38;;;;;;;0.68;79.60;95747.69;4987699;28;20031;-77
2022/01/19 15:00:10;;;;;;;11.02;6.70;;;;;;;0.59;80.80;95751.59;5003285;28;20081;-77
2022/01/19 15:02:36;;;;;;;14.32;7.15;;;;;;;0.53;80.96;95734.97;4971824;28;20039;-77
2022/01/19 15:05:01;;;;;;;15.25;7.63;;;;;;;0.47;81.49;95750.59;4971196;28;20022;-76
2022/01/19 15:07:26;;;;;;;13.43;7.10;;;;;;;0.48;82.24;95751.44;4970835;28;20092;-77
2022/01/19 15:09:52;;;;;;;13.90;8.07;;;;;;;0.37;82.93;95744.41;4985903;28;20022;-77
2022/01/19 15:12:17;;;;;;;15.13;7.10;;;;;;;0.26;83.87;95751.84;5005255;28;20022;-77
2022/01/19 15:14:45;;;;;;;13.38;7.40;;;;;;;0.17;85.02;95737.09;4987384;28;20030;-77
2022/01/19 15:17:11;;;;;;;13.82;8.63;;;;;;;0.12;85.86;95738.28;5004348;28;20038;-78
2022/01/19 15:19:37;;;;;;;19.02;8.85;;;;;;;0.20;86.67;95742.00;4985578;28;20039;-78
2022/01/19 15:22:03;;;;;;;12.43;8.32;;;;;;;0.05;86.28;95748.00;5002936;28;20019;-78
2022/01/19 15:24:28;;;;;;;17.05;8.60;;;;;;;-0.04;86.11;95753.63;4982883;28;20480;-77
2022/01/19 15:26:53;;;;;;;14.65;7.82;;;;;;;-0.18;86.01;95744.19;4982429;28;20133;-77
2022/01/19 15:29:19;;;;;;;12.63;7.75;;;;;;;-0.11;86.00;95739.59;4985836;28;20476;-78
2022/01/19 15:31:48;;;;;;;14.20;9.20;;;;;;;-0.15;86.38;95749.13;4982698;28;20124;-78
2022/01/19 15:34:13;;;;;;;20.20;13.93;;;;;;;-0.13;86.32;95749.06;4986608;28;20484;-75
2022/01/19 15:36:39;;;;;;;28.58;18.02;;;;;;;-0.24;87.36;95748.81;5003441;28;20085;-75
2022/01/19 15:39:07;;;;;;;38.85;19.88;;;;;;;-0.23;87.95;95751.28;4987492;28;20038;-75
2022/01/19 15:41:33;;;;;;;51.22;26.67;;;;;;;-0.33;87.88;95741.69;4987300;28;20031;-75
2022/01/19 15:43:58;;;;;;;52.40;27.23;;;;;;;-0.38;88.80;95751.31;5003292;28;20044;-75
2022/01/19 15:46:24;;;;;;;54.10;25.25;;;;;;;-0.37;88.02;95752.94;5004136;28;20034;-75
2022/01/19 15:48:49;;;;;;;36.78;18.58;;;;;;;-0.39;86.48;95744.59;5002688;28;20034;-75
2022/01/19 15:51:15;;;;;;;30.33;14.95;;;;;;;-0.25;86.29;95750.53;4987998;28;20097;-75
2022/01/19 15:53:40;;;;;;;27.10;13.70;;;;;;;-0.35;86.00;95751.94;4999559;28;20027;-75
2022/01/19 15:56:06;;;;;;;35.53;17.58;;;;;;;-0.50;86.78;95749.44;5002991;28;20568;-75
2022/01/19 15:58:32;;;;;;;35.03;19.05;;;;;;;-0.57;87.57;95747.22;4986143;28;20069;-75
2022/01/19 16:00:58;;;;;;;28.45;16.75;;;;;;;-0.58;88.05;95753.22;5003049;28;20435;-75
2022/01/19 16:03:24;;;;;;;31.80;14.88;;;;;;;-0.56;87.64;95745.53;4986104;28;20038;-76
2022/01/19 16:05:51;;;;;;;28.08;14.85;;;;;;;-0.61;87.28;95761.00;5001034;28;20061;-75
2022/01/19 16:08:17;;;;;;;25.95;16.17;;;;;;;-0.60;86.96;95757.56;4985262;28;20061;-76
2022/01/19 16:10:44;;;;;;;27.73;13.43;;;;;;;-0.52;86.85;95761.44;4985439;28;20048;-76
2022/01/19 16:13:10;;;;;;;24.70;12.45;;;;;;;-0.65;86.49;95749.41;4983109;28;20376;-76
2022/01/19 16:15:36;;;;;;;23.08;12.43;;;;;;;-0.74;86.65;95754.16;4968182;28;20030;-77
2022/01/19 16:18:02;;;;;;;27.40;14.13;;;;;;;-0.83;86.78;95745.28;5002394;28;20418;-76
2022/01/19 16:20:29;;;;;;;22.50;13.93;;;;;;;-0.84;87.12;95742.84;4985653;28;20104;-76
2022/01/19 16:28:24;;;;;;;22.75;12.80;;;;;;;-1.00;87.97;95753.00;4984297;28;20081;-77
2022/01/19 16:30:51;;;;;;;27.48;13.63;;;;;;;-1.01;87.74;95751.34;4985305;28;20443;-76
2022/01/19 16:33:17;;;;;;;30.80;14.32;;;;;;;-1.11;87.88;95763.72;5000197;28;20076;-76
2022/01/19 16:35:44;;;;;;;27.98;18.35;;;;;;;-1.15;88.93;95774.13;4982188;28;20030;-76
2022/01/19 16:38:09;;;;;;;27.70;17.48;;;;;;;-1.30;89.84;95759.69;4985519;28;20037;-77
2022/01/19 16:40:35;;;;;;;27.92;14.77;;;;;;;-1.29;89.54;95764.69;4983985;28;20034;-77
2022/01/19 16:43:00;;;;;;;25.35;13.98;;;;;;;-1.20;89.05;95746.44;5000052;28;20034;-77
2022/01/19 16:45:27;;;;;;;26.30;12.65;;;;;;;-1.21;89.39;95756.66;4981596;28;20035;-76
2022/01/19 16:47:57;;;;;;;18.30;12.38;;;;;;;-1.17;89.86;95761.50;5001127;28;20087;-77
2022/01/19 16:50:23;;;;;;;26.42;13.50;;;;;;;-1.18;89.13;95771.75;4985808;28;20019;-76
2022/01/19 16:52:48;;;;;;;25.17;13.77;;;;;;;-1.10;88.84;95772.19;4986906;28;20038;-76
2022/01/19 16:55:14;;;;;;;22.58;13.00;;;;;;;-1.12;88.19;95762.09;5000281;28;20625;-76
2022/01/19 16:57:39;;;;;;;25.95;14.10;;;;;;;-1.11;88.43;95752.75;4984924;28;20019;-76
2022/01/19 17:00:08;;;;;;;26.60;15.10;;;;;;;-0.99;88.23;95759.72;4985515;28;20057;-76
2022/01/19 17:02:33;;;;;;;27.45;14.20;;;;;;;-0.99;88.03;95766.50;4983121;28;20054;-75